Stockholm, New Jersey
Current Conditions -  °F | °C
As of 1:53 PM on Tuesday 27 Jan 2015 (Local Time) from KFWN Reporting Station
Light Snow Light Snow  
Wind Chill: 15°   Ceiling: 4600
Heat Index: 25°   Visibility: 7mi
Dew Point: 16°   Wind: 10mph
Humidity: 69%   Direction: 360°N
Pressure: 29.68"   Gusts: NA
Location:  41.09°N, 74.52°W
Report Text: KFWN 271853Z AUTO 36009KT 7SM -SN BKN046 OVC055 M04/M09 A2968 RMK AO2 SLP056 P0000 T10391089
Loading
Personal Weather Stations






























Interactive Weather Map New forecast layout! Learn more

10-Day Weather Forecast

Advertisements
Track Severe Weather on mobile